createdAt,value
2018-05-04T00:00:05.856Z,28.07
2018-05-04T00:02:38.277Z,28.13
2018-05-04T00:05:10.990Z,28.19
2018-05-04T00:07:44.942Z,28.17
2018-05-04T00:10:18.664Z,28.21
2018-05-04T00:12:51.444Z,28.18
2018-05-04T00:15:24.525Z,28.08
2018-05-04T00:17:58.656Z,28.05
2018-05-04T00:20:32.558Z,28.02
2018-05-04T00:23:05.643Z,27.97
2018-05-04T00:25:37.070Z,27.94
2018-05-04T00:28:09.669Z,27.92
2018-05-04T00:30:42.869Z,27.91
2018-05-04T00:33:15.710Z,27.88
2018-05-04T00:35:48.484Z,27.83
2018-05-04T00:38:21.597Z,27.75
2018-05-04T00:40:55.569Z,27.70
2018-05-04T00:43:28.745Z,27.68
2018-05-04T00:47:46.742Z,27.59
2018-05-04T00:50:19.958Z,27.52
2018-05-04T00:52:52.987Z,27.49
2018-05-04T00:55:26.400Z,27.48
2018-05-04T00:58:00.411Z,27.47
2018-05-04T01:00:33.541Z,27.45
2018-05-04T01:03:07.758Z,27.40
2018-05-04T01:05:42.414Z,27.32
2018-05-04T01:08:14.403Z,27.29
2018-05-04T01:10:46.479Z,27.29
2018-05-04T01:13:18.339Z,27.24
2018-05-04T01:15:51.302Z,27.18
2018-05-04T01:18:24.493Z,27.16
2018-05-04T01:20:57.585Z,27.13
2018-05-04T01:23:31.652Z,27.10
2018-05-04T01:26:08.557Z,27.09
2018-05-04T01:28:42.521Z,27.09
2018-05-04T01:31:16.108Z,27.07
2018-05-04T01:33:49.908Z,27.04
2018-05-04T01:36:22.885Z,27.02
2018-05-04T01:38:56.429Z,26.96
2018-05-04T01:41:31.221Z,26.93
2018-05-04T01:44:04.231Z,26.90
2018-05-04T01:46:37.544Z,26.88
2018-05-04T01:49:10.543Z,26.83
2018-05-04T01:51:44.473Z,26.78
2018-05-04T01:54:17.732Z,26.75
2018-05-04T01:56:50.742Z,26.74
2018-05-04T01:59:23.540Z,26.74
2018-05-04T02:01:57.690Z,26.74
2018-05-04T02:04:31.425Z,26.67
2018-05-04T02:07:04.731Z,26.62
2018-05-04T02:09:36.926Z,26.59
2018-05-04T02:12:08.836Z,26.56
2018-05-04T02:14:43.650Z,26.52
2018-05-04T02:17:16.464Z,26.45
2018-05-04T02:19:50.103Z,26.39
2018-05-04T02:22:23.892Z,26.33
2018-05-04T02:24:59.335Z,26.24
2018-05-04T02:28:29.430Z,26.14
2018-05-04T02:31:02.694Z,26.13
2018-05-04T02:33:40.257Z,26.13
2018-05-04T02:36:14.928Z,26.05
2018-05-04T02:38:47.933Z,26.00
2018-05-04T02:41:21.756Z,25.94
2018-05-04T02:43:54.934Z,25.86
2018-05-04T02:46:28.542Z,25.78
2018-05-04T02:49:01.571Z,25.74
2018-05-04T02:51:34.882Z,25.68
2018-05-04T02:54:08.592Z,25.66
2018-05-04T02:56:42.544Z,25.58
2018-05-04T02:59:14.491Z,25.54
2018-05-04T03:01:48.398Z,25.51
2018-05-04T03:04:21.342Z,25.46
2018-05-04T03:06:55.345Z,25.41
2018-05-04T03:09:29.923Z,25.34
2018-05-04T03:12:04.750Z,25.29
2018-05-04T03:14:36.941Z,25.28
2018-05-04T03:17:08.933Z,25.27
2018-05-04T03:19:40.946Z,25.25
2018-05-04T03:22:14.489Z,25.21
2018-05-04T03:24:48.505Z,25.21
2018-05-04T03:27:22.565Z,25.11
2018-05-04T03:29:55.403Z,25.07
2018-05-04T03:32:29.329Z,24.99
2018-05-04T03:35:02.655Z,24.88
2018-05-04T03:37:35.818Z,24.84
2018-05-04T03:40:08.697Z,24.76
2018-05-04T03:42:41.643Z,24.75
2018-05-04T03:45:15.088Z,24.68
2018-05-04T03:47:48.072Z,24.66
2018-05-04T03:50:22.011Z,24.68
2018-05-04T03:52:53.934Z,24.67
2018-05-04T03:55:26.459Z,24.64
2018-05-04T03:58:09.544Z,24.59
2018-05-04T04:00:53.503Z,24.59
2018-05-04T04:03:36.680Z,24.51
2018-05-04T04:06:08.610Z,24.44
2018-05-04T04:08:43.390Z,24.44
2018-05-04T04:11:16.393Z,24.43
2018-05-04T04:13:50.031Z,24.37
2018-05-04T04:16:24.330Z,24.30
2018-05-04T04:18:57.597Z,24.24
2018-05-04T04:21:30.413Z,24.21
2018-05-04T04:24:03.645Z,24.15
2018-05-04T04:26:35.417Z,24.15
2018-05-04T04:29:08.053Z,24.11
2018-05-04T04:31:41.287Z,24.06
2018-05-04T04:34:14.168Z,24.03
2018-05-04T04:36:48.583Z,24.00
2018-05-04T04:39:22.590Z,23.98
2018-05-04T04:41:55.970Z,23.98
2018-05-04T04:44:29.460Z,23.95
2018-05-04T04:47:01.951Z,23.91
2018-05-04T04:49:34.421Z,23.88
2018-05-04T04:52:06.422Z,23.85
2018-05-04T04:54:39.355Z,23.83
2018-05-04T04:57:13.073Z,23.78
2018-05-04T04:59:47.698Z,23.74
2018-05-04T05:02:19.459Z,23.72
2018-05-04T05:04:52.647Z,23.67
2018-05-04T05:07:25.526Z,23.63
2018-05-04T05:09:58.453Z,23.65
2018-05-04T05:14:27.116Z,23.61
2018-05-04T05:17:00.422Z,23.55
2018-05-04T05:19:33.333Z,23.55
2018-05-04T05:22:07.291Z,23.53
2018-05-04T05:24:40.731Z,23.48
2018-05-04T05:27:13.658Z,23.44
2018-05-04T05:29:46.705Z,23.43
2018-05-04T05:32:19.958Z,23.49
2018-05-04T05:34:53.549Z,23.41
2018-05-04T05:37:27.793Z,23.38
2018-05-04T05:39:59.469Z,23.38
2018-05-04T05:42:32.454Z,23.34
2018-05-04T05:45:05.134Z,23.33
2018-05-04T05:47:38.492Z,23.29
2018-05-04T05:50:12.095Z,23.33
2018-05-04T05:52:46.646Z,23.38
2018-05-04T05:55:19.489Z,23.34
2018-05-04T05:57:52.653Z,23.31
2018-05-04T06:00:25.415Z,23.32
2018-05-04T06:02:58.626Z,23.24
2018-05-04T06:05:31.445Z,23.17
2018-05-04T06:08:04.274Z,23.17
2018-05-04T06:10:36.747Z,23.20
2018-05-04T06:13:10.569Z,23.21
2018-05-04T06:15:44.192Z,23.23
2018-05-04T06:18:17.007Z,23.28
2018-05-04T06:20:51.439Z,23.28
2018-05-04T06:23:24.279Z,23.26
2018-05-04T06:25:57.935Z,23.21
2018-05-04T06:28:31.766Z,23.19
2018-05-04T06:31:05.784Z,23.15
2018-05-04T06:33:38.604Z,23.11
2018-05-04T06:36:11.170Z,23.07
2018-05-04T06:38:45.140Z,23.02
2018-05-04T06:41:18.773Z,23.05
2018-05-04T06:43:51.105Z,23.01
2018-05-04T06:46:24.431Z,22.95
2018-05-04T06:48:57.148Z,22.97
2018-05-04T06:51:31.468Z,22.99
2018-05-04T06:54:04.969Z,22.95
2018-05-04T06:56:37.982Z,22.88
2018-05-04T06:59:11.242Z,22.80
2018-05-04T07:01:45.086Z,22.78
2018-05-04T07:04:18.355Z,22.84
2018-05-04T07:06:51.351Z,22.81
2018-05-04T07:09:24.433Z,22.77
2018-05-04T07:11:59.091Z,22.69
2018-05-04T07:14:32.714Z,22.72
2018-05-04T07:17:05.488Z,22.73
2018-05-04T07:19:38.847Z,22.75
2018-05-04T07:22:12.117Z,22.76
2018-05-04T07:24:45.028Z,22.72
2018-05-04T07:27:18.655Z,22.73
2018-05-04T07:29:50.445Z,22.73
2018-05-04T07:32:23.970Z,22.78
2018-05-04T07:34:57.030Z,22.80
2018-05-04T07:37:29.683Z,22.79
2018-05-04T07:40:03.592Z,22.74
2018-05-04T07:42:37.288Z,22.70
2018-05-04T07:45:10.617Z,22.70
2018-05-04T07:47:44.500Z,22.67
2018-05-04T07:50:19.438Z,22.58
2018-05-04T07:52:53.056Z,22.55
2018-05-04T07:55:26.256Z,22.56
2018-05-04T07:57:59.466Z,22.51
2018-05-04T08:00:32.673Z,22.49
2018-05-04T08:03:05.631Z,22.46
2018-05-04T08:05:38.459Z,22.44
2018-05-04T08:08:11.598Z,22.42
2018-05-04T08:10:44.463Z,22.46
2018-05-04T08:13:17.422Z,22.48
2018-05-04T08:15:50.498Z,22.50
2018-05-04T08:18:23.432Z,22.54
2018-05-04T08:20:54.934Z,22.52
2018-05-04T08:23:27.527Z,22.54
2018-05-04T08:26:00.823Z,22.53
2018-05-04T08:28:32.601Z,22.46
2018-05-04T08:31:06.049Z,22.42
2018-05-04T08:33:39.291Z,22.44
2018-05-04T08:36:12.470Z,22.45
2018-05-04T08:38:45.457Z,22.44
2018-05-04T08:41:18.592Z,22.42
2018-05-04T08:43:51.792Z,22.37
2018-05-04T08:46:24.770Z,22.38
2018-05-04T08:48:58.214Z,22.39
2018-05-04T08:51:30.387Z,22.38
2018-05-04T08:54:03.204Z,22.34
2018-05-04T08:56:36.206Z,22.31
2018-05-04T08:59:08.974Z,22.30
2018-05-04T09:01:42.530Z,22.31
2018-05-04T09:04:15.690Z,22.29
2018-05-04T09:06:49.524Z,22.28
2018-05-04T09:09:22.664Z,22.26
2018-05-04T09:11:55.917Z,22.29
2018-05-04T09:14:29.075Z,22.29
2018-05-04T09:17:02.476Z,22.27
2018-05-04T09:20:55.554Z,22.23
2018-05-04T09:23:33.527Z,22.20
2018-05-04T09:26:06.566Z,22.19
2018-05-04T09:28:39.282Z,22.19
2018-05-04T09:31:11.434Z,22.21
2018-05-04T09:33:44.981Z,22.23
2018-05-04T09:36:17.537Z,22.24
2018-05-04T09:38:50.438Z,22.22
2018-05-04T09:41:23.408Z,22.14
2018-05-04T09:43:56.430Z,22.10
2018-05-04T09:46:29.401Z,22.09
2018-05-04T09:49:02.778Z,22.06
2018-05-04T09:51:36.329Z,22.02
2018-05-04T09:54:09.045Z,21.96
2018-05-04T09:56:41.938Z,21.96
2018-05-04T09:59:14.844Z,21.99
2018-05-04T10:01:47.928Z,22.03
2018-05-04T10:04:20.430Z,22.04
2018-05-04T10:06:53.424Z,22.06
2018-05-04T10:09:26.060Z,22.02
2018-05-04T10:11:59.068Z,21.94
2018-05-04T10:14:32.448Z,21.84
2018-05-04T10:17:05.981Z,21.77
2018-05-04T10:19:38.441Z,21.67
2018-05-04T10:22:11.715Z,21.58
2018-05-04T10:24:44.492Z,21.56
2018-05-04T10:27:18.926Z,21.55
2018-05-04T10:29:51.931Z,21.55
2018-05-04T10:32:25.917Z,21.52
2018-05-04T10:34:59.412Z,21.52
2018-05-04T10:37:32.607Z,21.51
2018-05-04T10:40:05.413Z,21.47
2018-05-04T12:36:57.299Z,20.79
2018-05-04T12:39:30.459Z,20.80
2018-05-04T12:42:03.291Z,20.85
2018-05-04T12:44:36.512Z,20.86
2018-05-04T12:47:09.188Z,20.85
2018-05-04T12:49:42.023Z,20.85
2018-05-04T12:52:15.087Z,20.88
2018-05-04T12:54:48.039Z,20.86
2018-05-04T12:57:20.701Z,20.81
2018-05-04T12:59:53.495Z,20.82
2018-05-04T13:02:26.499Z,20.85
2018-05-04T13:04:59.474Z,20.86
2018-05-04T13:07:32.436Z,20.85
2018-05-04T13:10:04.961Z,20.84
2018-05-04T13:12:38.654Z,20.82
2018-05-04T13:15:12.256Z,20.79
2018-05-04T13:17:44.992Z,20.78
2018-05-04T13:20:18.570Z,20.79
2018-05-04T13:22:52.265Z,20.82
2018-05-04T13:25:24.952Z,20.85
2018-05-04T13:27:58.251Z,20.81
2018-05-04T13:30:30.542Z,20.77
2018-05-04T13:33:03.544Z,20.79
2018-05-04T13:35:36.482Z,20.83
2018-05-04T13:38:10.540Z,20.87
2018-05-04T13:40:43.940Z,20.87
2018-05-04T13:43:17.403Z,20.88
2018-05-04T13:45:50.562Z,20.92
2018-05-04T13:48:23.650Z,20.90
2018-05-04T13:50:56.151Z,20.87
2018-05-04T13:53:28.557Z,20.88
2018-05-04T13:56:02.423Z,20.88
2018-05-04T13:58:35.401Z,20.86
2018-05-04T14:01:09.108Z,20.84
2018-05-04T14:03:42.465Z,20.88
2018-05-04T14:06:15.539Z,20.91
2018-05-04T14:08:48.419Z,20.95
2018-05-04T14:11:21.593Z,20.95
2018-05-04T14:13:54.432Z,20.96
2018-05-04T14:16:27.960Z,20.93
2018-05-04T14:19:01.410Z,20.96
2018-05-04T14:21:34.236Z,20.96
2018-05-04T14:24:06.547Z,20.97
2018-05-04T14:26:40.556Z,20.96
2018-05-04T14:29:13.426Z,21.00
2018-05-04T14:31:46.899Z,21.00
2018-05-04T14:34:19.931Z,20.97
2018-05-04T14:36:52.647Z,20.98
2018-05-04T14:39:25.399Z,20.95
2018-05-04T14:41:59.331Z,20.94
2018-05-04T14:44:32.487Z,20.91
2018-05-04T14:47:06.109Z,20.88
2018-05-04T14:49:39.327Z,20.84
2018-05-04T14:52:12.940Z,20.82
2018-05-04T14:54:45.666Z,20.82
2018-05-04T14:57:18.859Z,20.80
2018-05-04T14:59:51.838Z,20.83
2018-05-04T15:02:25.505Z,20.87
2018-05-04T15:04:57.571Z,20.84
2018-05-04T15:07:30.469Z,20.79
2018-05-04T15:10:04.614Z,20.75
2018-05-04T15:12:38.445Z,20.74
2018-05-04T15:15:11.443Z,20.71
2018-05-04T15:17:45.970Z,20.73
2018-05-04T15:20:18.434Z,20.78
2018-05-04T15:22:50.982Z,20.80
2018-05-04T15:25:24.964Z,20.80
2018-05-04T15:27:59.052Z,20.83
2018-05-04T15:30:32.057Z,20.88
2018-05-04T15:33:05.424Z,20.91
2018-05-04T15:35:39.464Z,20.90
2018-05-04T15:38:12.464Z,20.88
2018-05-04T15:40:45.030Z,20.88
2018-05-04T15:43:17.429Z,20.86
2018-05-04T15:45:51.431Z,20.87
2018-05-04T15:48:29.331Z,20.91
2018-05-04T15:51:07.571Z,20.92
2018-05-04T15:53:40.760Z,20.93
2018-05-04T15:56:14.050Z,20.94
2018-05-04T15:58:47.551Z,21.04
2018-05-04T16:01:20.123Z,21.12
2018-05-04T16:03:53.119Z,21.16
2018-05-04T16:06:25.979Z,21.15
2018-05-04T16:08:59.117Z,21.19
2018-05-04T16:11:31.673Z,21.23
2018-05-04T16:14:03.828Z,21.28
2018-05-04T16:16:37.642Z,21.31
2018-05-04T16:19:09.337Z,21.24
2018-05-04T16:21:41.072Z,21.22
2018-05-04T16:24:12.873Z,21.25
2018-05-04T16:26:43.421Z,21.25
2018-05-04T16:29:15.070Z,21.24
2018-05-04T16:31:47.099Z,21.25
2018-05-04T16:34:18.991Z,21.28
2018-05-04T16:36:52.269Z,21.35
2018-05-04T16:39:24.443Z,21.42
2018-05-04T16:41:56.189Z,21.40
2018-05-04T16:44:28.073Z,21.40
2018-05-04T16:47:04.933Z,21.40
2018-05-04T16:49:36.533Z,21.43
2018-05-04T16:52:08.030Z,21.49
2018-05-04T16:54:40.425Z,21.53
2018-05-04T16:57:12.217Z,21.60
2018-05-04T17:02:00.531Z,21.73
2018-05-04T17:04:32.436Z,21.77
2018-05-04T17:07:06.435Z,21.84
2018-05-04T17:09:38.078Z,21.86
2018-05-04T17:12:10.322Z,21.82
2018-05-04T17:14:42.257Z,21.86
2018-05-04T17:17:14.002Z,21.92
2018-05-04T17:19:45.532Z,21.98
2018-05-04T17:22:17.800Z,22.04
2018-05-04T17:24:49.612Z,22.11
2018-05-04T17:28:42.315Z,22.15
2018-05-04T17:31:14.067Z,22.19
2018-05-04T17:33:46.217Z,22.22
2018-05-04T17:36:17.851Z,22.26
2018-05-04T17:38:49.405Z,22.27
2018-05-04T17:41:21.322Z,22.34
2018-05-04T17:43:53.416Z,22.38
2018-05-04T17:46:25.519Z,22.43
2018-05-04T17:48:56.956Z,22.49
2018-05-04T17:51:28.550Z,22.56
2018-05-04T17:54:00.421Z,22.64
2018-05-04T17:56:32.039Z,22.69
2018-05-04T17:59:03.662Z,22.74
2018-05-04T18:01:35.740Z,22.79
2018-05-04T18:04:07.539Z,22.85
2018-05-04T18:06:40.079Z,22.92
2018-05-04T18:09:11.885Z,22.97
2018-05-04T18:11:43.791Z,23.04
2018-05-04T18:14:15.594Z,23.11
2018-05-04T18:16:47.529Z,23.16
2018-05-04T18:19:20.142Z,23.23
2018-05-04T18:21:52.524Z,23.34
2018-05-04T18:24:24.779Z,23.42
2018-05-04T18:26:57.017Z,23.51
2018-05-04T18:29:28.760Z,23.58
2018-05-04T18:32:46.556Z,23.65
2018-05-04T18:35:19.967Z,23.74
2018-05-04T18:39:16.567Z,23.86
2018-05-04T18:41:48.111Z,23.94
2018-05-04T18:44:20.819Z,23.98
2018-05-04T18:46:54.560Z,24.02
2018-05-04T18:49:25.088Z,24.09
2018-05-04T18:51:56.971Z,24.19
2018-05-04T18:54:29.018Z,24.27
2018-05-04T18:57:00.975Z,24.34
2018-05-04T18:59:33.344Z,24.44
2018-05-04T19:02:05.516Z,24.51
2018-05-04T19:04:38.970Z,24.56
2018-05-04T19:07:12.517Z,24.64
2018-05-04T19:09:44.586Z,24.73
2018-05-04T19:12:16.249Z,24.80
2018-05-04T19:14:47.971Z,24.85
2018-05-04T19:17:20.101Z,24.94
2018-05-04T19:19:52.266Z,25.01
2018-05-04T19:22:23.887Z,25.09
2018-05-04T19:24:55.444Z,25.17
2018-05-04T19:27:27.567Z,25.23
2018-05-04T19:29:59.427Z,25.25
2018-05-04T19:32:31.437Z,25.31
2018-05-04T19:35:03.560Z,25.37
2018-05-04T19:37:35.456Z,25.47
2018-05-04T19:40:07.970Z,25.56
2018-05-04T19:42:39.552Z,25.61
2018-05-04T19:45:11.106Z,25.66
2018-05-04T19:48:53.671Z,25.73
2018-05-04T19:51:27.228Z,25.75
2018-05-04T19:53:58.759Z,25.78
2018-05-04T19:56:30.988Z,25.86
2018-05-04T19:59:03.000Z,25.90
2018-05-04T20:01:34.790Z,25.92
2018-05-04T20:04:07.412Z,25.96
2018-05-04T20:06:39.023Z,26.02
2018-05-04T20:09:10.843Z,26.09
2018-05-04T20:11:42.406Z,26.13
2018-05-04T20:14:14.099Z,26.17
2018-05-04T20:16:45.611Z,26.24
2018-05-04T20:19:17.455Z,26.36
2018-05-04T20:21:49.063Z,26.39
2018-05-04T20:24:21.027Z,26.44
2018-05-04T20:26:53.550Z,26.55
2018-05-04T20:29:25.442Z,26.66
2018-05-04T20:31:57.328Z,26.71
2018-05-04T20:34:30.325Z,26.76
2018-05-04T20:37:02.497Z,26.87
2018-05-04T20:41:04.641Z,26.97
2018-05-04T20:43:36.429Z,27.03
2018-05-04T20:46:08.100Z,27.11
2018-05-04T20:48:40.083Z,27.22
2018-05-04T20:51:11.803Z,27.30
2018-05-04T20:53:44.752Z,27.35
2018-05-04T20:56:16.989Z,27.39
2018-05-04T20:58:49.256Z,27.44
2018-05-04T21:01:20.972Z,27.49
2018-05-04T21:03:53.628Z,27.55
2018-05-04T21:06:25.981Z,27.60
2018-05-04T21:08:58.081Z,27.64
2018-05-04T21:11:29.763Z,27.70
2018-05-04T21:14:01.597Z,27.79
2018-05-04T21:16:33.563Z,27.83
2018-05-04T21:19:05.440Z,27.89
2018-05-04T21:21:37.054Z,27.95
2018-05-04T21:24:08.977Z,28.04
2018-05-04T21:26:40.550Z,28.13
2018-05-04T21:29:12.521Z,28.20
2018-05-04T21:31:45.556Z,28.25
2018-05-04T21:34:17.411Z,28.31
2018-05-04T21:36:49.160Z,28.38
2018-05-04T21:39:21.039Z,28.41
2018-05-04T21:41:52.566Z,28.47
2018-05-04T21:44:24.426Z,28.54
2018-05-04T21:46:56.167Z,28.64
2018-05-04T21:49:28.065Z,28.70
2018-05-04T21:52:00.054Z,28.75
2018-05-04T21:54:31.980Z,28.84
2018-05-04T21:57:04.093Z,28.92
2018-05-04T21:59:36.795Z,28.97
2018-05-04T22:02:08.960Z,29.01
2018-05-04T22:04:40.614Z,29.05
2018-05-04T22:07:12.297Z,29.12
2018-05-04T22:09:44.005Z,29.18
2018-05-04T22:12:17.046Z,29.25
2018-05-04T22:14:49.976Z,29.33
2018-05-04T22:17:22.995Z,29.38
2018-05-04T22:19:56.239Z,29.46
2018-05-04T22:22:28.560Z,29.53
2018-05-04T22:25:00.823Z,29.55
2018-05-04T22:27:32.531Z,29.62
2018-05-04T22:30:05.677Z,29.66
2018-05-04T22:32:37.441Z,29.72
2018-05-04T22:35:09.041Z,29.80
2018-05-04T22:37:41.095Z,29.86
2018-05-04T22:40:13.169Z,29.94
2018-05-04T22:42:45.363Z,30.01
2018-05-04T22:45:17.466Z,30.08
2018-05-04T22:47:49.528Z,30.17
2018-05-04T22:50:21.791Z,30.25
2018-05-04T22:52:53.747Z,30.33
2018-05-04T22:55:25.519Z,30.38
2018-05-04T22:57:57.141Z,30.42
2018-05-04T23:00:29.697Z,30.47
2018-05-04T23:03:01.460Z,30.56
2018-05-04T23:05:33.602Z,30.62
2018-05-04T23:08:05.375Z,30.65
2018-05-04T23:10:38.736Z,30.69
2018-05-04T23:13:11.509Z,30.78
2018-05-04T23:15:45.437Z,30.82
2018-05-04T23:18:17.160Z,30.87
2018-05-04T23:20:50.141Z,30.90
2018-05-04T23:23:22.462Z,30.94
2018-05-04T23:25:54.395Z,31.00
2018-05-04T23:28:26.014Z,31.02
2018-05-04T23:30:58.141Z,31.08
2018-05-04T23:33:30.009Z,31.16
2018-05-04T23:36:01.556Z,31.22
2018-05-04T23:38:33.091Z,31.18
2018-05-04T23:42:36.296Z,31.19
2018-05-04T23:45:07.999Z,31.26
2018-05-04T23:47:39.610Z,31.41
2018-05-04T23:50:12.556Z,31.52
2018-05-04T23:52:45.255Z,31.55
2018-05-04T23:55:17.606Z,31.42
2018-05-04T23:57:49.039Z,31.37
